Terminal Aerodrome Forecast
Issued by NWS

Home | Current Version | Previous Version | Text Only | Print | Product List | Glossary On
Versions: 1 2 3 4 5 6 7 8 9 10 11 12 13 14 15 16 17
851
FTUS41 KBTV 242320
TAFMSS
TAF
KMSS 242320Z 2500/2524 VRB03KT P6SM BKN150 BKN250
     FM251300 19006KT P6SM SCT090 BKN200
     FM251800 21009KT P6SM VCSH SCT070 OVC120
     FM252100 23008KT P6SM SCT050 BKN080=

USA.gov is the U.S. government's official web portal to all federal, state and local government web resources and services.